Terminal Aerodrome Forecast
Issued by NWS Bismarck, ND

Home | Current Version | Previous Version | Text Only | Print | Product List | Glossary On
Versions: 1 2 3 4 5 6 7 8 9 10 11 12 13 14 15 16 17 18 19 20 21
141
FTUS43 KBIS 151125
TAFISN
TAF
KISN 151125Z 1512/1612 00000KT P6SM SCT030 BKN120
     FM151500 15004KT P6SM BKN030
     FM151800 16004KT P6SM OVC045
     FM152000 08005KT P6SM BKN070
     FM152200 08005KT P6SM SCT100=

USA.gov is the U.S. government's official web portal to all federal, state and local government web resources and services.